createdAt,value
2019-04-26T00:01:56.661Z,101478.82
2019-04-26T00:04:28.792Z,101478.11
2019-04-26T00:07:00.359Z,101482.31
2019-04-26T00:09:33.893Z,101472.07
2019-04-26T00:12:07.201Z,101472.31
2019-04-26T00:14:40.316Z,101474.63
2019-04-26T00:17:13.622Z,101470.67
2019-04-26T00:19:45.283Z,101474.28
2019-04-26T00:22:17.249Z,101470.36
2019-04-26T00:24:48.896Z,101471.02
2019-04-26T00:27:21.270Z,101468.95
2019-04-26T00:29:52.751Z,101468.39
2019-04-26T00:32:23.447Z,101470.12
2019-04-26T00:34:55.199Z,101465.45
2019-04-26T00:37:25.805Z,101475.69
2019-04-26T00:39:56.906Z,101474.88
2019-04-26T00:42:27.964Z,101466.98
2019-04-26T00:44:59.398Z,101464.44
2019-04-26T00:47:32.136Z,101464.51
2019-04-26T00:50:04.380Z,101470.23
2019-04-26T00:52:36.809Z,101466.35
2019-04-26T00:55:09.250Z,101465.14
2019-04-26T00:57:42.432Z,101467.77
2019-04-26T01:00:18.147Z,101459.77
2019-04-26T01:02:52.223Z,101461.33
2019-04-26T01:05:25.149Z,101455.56
2019-04-26T01:07:57.884Z,101455.17
2019-04-26T01:10:29.744Z,101446.94
2019-04-26T01:13:01.391Z,101447.09
2019-04-26T01:15:33.048Z,101449.72
2019-04-26T01:18:05.017Z,101447.99
2019-04-26T01:20:37.868Z,101449.02
2019-04-26T01:23:12.375Z,101449.05
2019-04-26T01:25:55.400Z,101449.28
2019-04-26T01:28:54.292Z,101446.66
2019-04-26T01:31:29.149Z,101448.61
2019-04-26T01:34:01.027Z,101447.40
2019-04-26T01:36:34.273Z,101447.40
2019-04-26T01:39:19.734Z,101444.92
2019-04-26T01:41:55.410Z,101445.22
2019-04-26T01:44:47.612Z,101446.13
2019-04-26T01:47:20.768Z,101447.59
2019-04-26T01:49:53.431Z,101441.66
2019-04-26T01:52:25.717Z,101442.86
2019-04-26T01:54:57.588Z,101447.25
2019-04-26T01:57:31.486Z,101443.29
2019-04-26T02:00:21.180Z,101441.13
2019-04-26T02:02:55.866Z,101435.55
2019-04-26T02:05:28.465Z,101439.88
2019-04-26T02:08:00.112Z,101435.55
2019-04-26T02:10:32.668Z,101440.20
2019-04-26T02:13:04.364Z,101438.94
2019-04-26T02:15:36.214Z,101438.26
2019-04-26T02:18:07.776Z,101439.27
2019-04-26T02:20:52.976Z,101444.56
2019-04-26T02:23:27.934Z,101440.31
2019-04-26T02:26:01.262Z,101438.61
2019-04-26T02:28:33.118Z,101431.31
2019-04-26T02:31:04.975Z,101435.95
2019-04-26T02:33:36.945Z,101437.13
2019-04-26T02:36:08.398Z,101439.13
2019-04-26T02:38:40.359Z,101442.03
2019-04-26T02:41:12.118Z,101442.86
2019-04-26T02:43:46.328Z,101440.17
2019-04-26T02:46:22.870Z,101445.03
2019-04-26T02:49:13.603Z,101448.05
2019-04-26T02:51:54.057Z,101442.59
2019-04-26T02:54:47.097Z,101443.03
2019-04-26T02:57:38.877Z,101444.95
2019-04-26T03:00:13.844Z,101442.97
2019-04-26T03:02:49.653Z,101442.44
2019-04-26T03:05:21.731Z,101446.97
2019-04-26T03:08:05.308Z,101450.95
2019-04-26T03:10:40.488Z,101450.45
2019-04-26T03:13:16.824Z,101451.23
2019-04-26T03:16:02.610Z,101449.16
2019-04-26T03:18:45.119Z,101454.50
2019-04-26T03:21:22.717Z,101453.87
2019-04-26T03:24:03.278Z,101457.16
2019-04-26T03:26:43.667Z,101449.98
2019-04-26T03:29:26.055Z,101448.14
2019-04-26T03:32:16.213Z,101441.28
2019-04-26T03:35:20.096Z,101449.72
2019-04-26T03:38:29.745Z,101446.03
2019-04-26T03:41:14.453Z,101444.27
2019-04-26T03:43:49.280Z,101441.09
2019-04-26T03:46:37.706Z,101448.50
2019-04-26T03:49:38.064Z,101447.13
2019-04-26T03:52:18.614Z,101453.52
2019-04-26T03:54:53.960Z,101453.02
2019-04-26T03:57:36.901Z,101451.55
2019-04-26T04:00:13.034Z,101456.93
2019-04-26T04:02:55.559Z,101454.37
2019-04-26T04:05:35.952Z,101455.03
2019-04-26T04:08:11.566Z,101448.53
2019-04-26T04:10:58.159Z,101440.72
2019-04-26T04:14:00.176Z,101436.23
2019-04-26T04:16:43.575Z,101434.98
2019-04-26T04:19:25.762Z,101436.42
2019-04-26T04:22:12.583Z,101435.84
2019-04-26T04:24:49.169Z,101433.50
2019-04-26T04:27:29.911Z,101430.39
2019-04-26T04:30:13.546Z,101423.07
2019-04-26T04:32:52.146Z,101432.27
2019-04-26T04:35:26.790Z,101428.64
2019-04-26T04:38:13.799Z,101424.55
2019-04-26T04:40:53.498Z,101426.99
2019-04-26T04:43:35.544Z,101434.58
2019-04-26T04:46:18.039Z,101428.23
2019-04-26T04:48:59.836Z,101434.39
2019-04-26T04:51:44.871Z,101427.43
2019-04-26T04:54:20.558Z,101425.95
2019-04-26T04:57:09.929Z,101429.75
2019-04-26T04:59:54.113Z,101428.09
2019-04-26T05:02:46.698Z,101427.01
2019-04-26T05:05:38.532Z,101431.47
2019-04-26T05:08:22.597Z,101434.16
2019-04-26T05:10:59.880Z,101432.14
2019-04-26T05:13:43.793Z,101438.09
2019-04-26T05:16:33.222Z,101430.95
2019-04-26T05:19:30.765Z,101426.53
2019-04-26T05:22:39.277Z,101436.02
2019-04-26T05:25:53.501Z,101434.03
2019-04-26T05:28:38.875Z,101422.31
2019-04-26T05:31:24.080Z,101434.13
2019-04-26T05:34:19.793Z,101422.95
2019-04-26T05:37:15.723Z,101427.59
2019-04-26T05:39:51.158Z,101428.69
2019-04-26T05:42:44.215Z,101425.42
2019-04-26T05:45:46.084Z,101417.99
2019-04-26T05:48:34.634Z,101416.38
2019-04-26T05:51:25.034Z,101417.32
2019-04-26T05:54:36.516Z,101421.54
2019-04-26T05:57:32.063Z,101420.88
2019-04-26T06:00:58.268Z,101418.30
2019-04-26T06:03:37.915Z,101416.02
2019-04-26T06:06:20.317Z,101413.36
2019-04-26T06:09:06.626Z,101414.28
2019-04-26T06:11:54.727Z,101418.81
2019-04-26T06:15:09.224Z,101414.31
2019-04-26T06:17:45.885Z,101420.00
2019-04-26T06:20:32.503Z,101418.79
2019-04-26T06:23:33.638Z,101422.05
2019-04-26T06:26:33.679Z,101418.66
2019-04-26T06:29:17.401Z,101415.12
2019-04-26T06:31:58.573Z,101422.17
2019-04-26T06:34:36.163Z,101419.56
2019-04-26T06:37:21.337Z,101415.53
2019-04-26T06:40:02.254Z,101413.06
2019-04-26T06:43:16.870Z,101410.79
2019-04-26T06:46:00.491Z,101417.51
2019-04-26T06:48:44.870Z,101408.30
2019-04-26T06:51:24.837Z,101412.38
2019-04-26T06:54:13.779Z,101405.12
2019-04-26T06:56:49.907Z,101415.33
2019-04-26T06:59:36.483Z,101409.20
2019-04-26T07:02:18.942Z,101414.39
2019-04-26T07:05:15.299Z,101406.83
2019-04-26T07:07:58.599Z,101404.71
2019-04-26T07:10:58.002Z,101407.95
2019-04-26T07:13:52.805Z,101408.62
2019-04-26T07:16:52.104Z,101400.86
2019-04-26T07:20:06.060Z,101407.22
2019-04-26T07:23:09.858Z,101411.98
2019-04-26T07:26:02.207Z,101405.23
2019-04-26T07:28:46.858Z,101404.70
2019-04-26T07:31:36.648Z,101406.83
2019-04-26T07:34:31.648Z,101403.08
2019-04-26T07:37:41.640Z,101399.50
2019-04-26T07:40:38.032Z,101396.91
2019-04-26T07:43:29.451Z,101400.09
2019-04-26T07:46:16.668Z,101398.42
2019-04-26T07:49:10.264Z,101391.88
2019-04-26T07:52:10.572Z,101392.38
2019-04-26T07:55:11.203Z,101394.89
2019-04-26T07:57:51.880Z,101389.81
2019-04-26T08:00:44.674Z,101387.25
2019-04-26T08:03:34.398Z,101392.28
2019-04-26T08:06:07.492Z,101386.13
2019-04-26T08:08:48.020Z,101386.20
2019-04-26T08:11:22.872Z,101387.01
2019-04-26T08:14:19.202Z,101381.50
2019-04-26T08:17:20.971Z,101381.20
2019-04-26T08:19:57.564Z,101372.60
2019-04-26T08:22:33.846Z,101379.33
2019-04-26T08:25:08.441Z,101372.70
2019-04-26T08:27:42.101Z,101369.89
2019-04-26T08:30:19.066Z,101369.28
2019-04-26T08:32:54.348Z,101366.07
2019-04-26T08:35:29.687Z,101357.11
2019-04-26T08:38:08.275Z,101354.11
2019-04-26T08:40:39.242Z,101354.11
2019-04-26T08:43:30.910Z,101351.95
2019-04-26T08:46:10.441Z,101345.41
2019-04-26T08:48:51.582Z,101344.53
2019-04-26T08:51:25.386Z,101339.72
2019-04-26T08:53:58.911Z,101341.45
2019-04-26T08:56:42.317Z,101337.09
2019-04-26T08:59:44.480Z,101330.00
2019-04-26T09:02:28.224Z,101328.48
2019-04-26T09:05:22.007Z,101322.55
2019-04-26T09:07:57.558Z,101317.84
2019-04-26T09:10:32.991Z,101319.70
2019-04-26T09:13:08.331Z,101317.16
2019-04-26T09:16:08.910Z,101312.80
2019-04-26T09:18:43.906Z,101312.59
2019-04-26T09:21:17.556Z,101307.84
2019-04-26T09:24:08.419Z,101301.86
2019-04-26T09:26:46.551Z,101297.31
2019-04-26T09:29:22.709Z,101302.92
2019-04-26T09:31:56.581Z,101292.13
2019-04-26T09:34:32.738Z,101298.52
2019-04-26T09:37:04.400Z,101292.53
2019-04-26T09:39:36.054Z,101281.73
2019-04-26T09:42:09.665Z,101286.80
2019-04-26T09:44:46.018Z,101288.51
2019-04-26T09:47:22.174Z,101285.52
2019-04-26T09:50:15.461Z,101275.88
2019-04-26T09:52:48.213Z,101285.30
2019-04-26T09:55:19.870Z,101279.63
2019-04-26T09:57:53.510Z,101279.99
2019-04-26T10:00:27.704Z,101279.74
2019-04-26T10:03:01.080Z,101280.78
2019-04-26T10:05:33.145Z,101279.80
2019-04-26T10:08:08.331Z,101277.66
2019-04-26T10:10:38.708Z,101275.19
2019-04-26T10:13:16.404Z,101276.02
2019-04-26T10:15:58.118Z,101277.52
2019-04-26T10:18:29.853Z,101273.31
2019-04-26T10:21:01.915Z,101270.77
2019-04-26T10:23:33.776Z,101269.30
2019-04-26T10:26:07.380Z,101270.02
2019-04-26T10:28:39.141Z,101260.67
2019-04-26T10:31:13.449Z,101258.16
2019-04-26T10:33:44.100Z,101255.75
2019-04-26T10:36:16.047Z,101253.05
2019-04-26T10:38:47.760Z,101257.42
2019-04-26T10:41:19.617Z,101255.09
2019-04-26T10:43:51.028Z,101252.94
2019-04-26T10:46:24.464Z,101250.84
2019-04-26T10:49:08.200Z,101246.42
2019-04-26T10:51:31.787Z,101241.09
2019-04-26T10:54:07.380Z,101238.39
2019-04-26T10:56:43.112Z,101236.27
2019-04-26T10:59:17.727Z,101232.78
2019-04-26T11:01:50.409Z,101231.82
2019-04-26T11:04:22.275Z,101224.06
2019-04-26T11:06:53.721Z,101221.64
2019-04-26T11:09:25.783Z,101217.61
2019-04-26T11:11:57.641Z,101213.55
2019-04-26T11:14:29.499Z,101214.58
2019-04-26T11:17:02.398Z,101215.80
2019-04-26T11:19:35.431Z,101209.41
2019-04-26T11:22:07.746Z,101209.08
2019-04-26T11:24:40.422Z,101203.77
2019-04-26T11:27:12.041Z,101208.77
2019-04-26T11:29:53.207Z,101199.50
2019-04-26T11:32:17.340Z,101192.26
2019-04-26T11:34:49.017Z,101200.63
2019-04-26T11:37:21.059Z,101191.85
2019-04-26T11:39:53.136Z,101198.30
2019-04-26T11:42:24.671Z,101188.64
2019-04-26T11:45:05.698Z,101185.10
2019-04-26T11:47:30.279Z,101184.02
2019-04-26T11:50:01.884Z,101183.27
2019-04-26T11:52:36.044Z,101184.73
2019-04-26T11:55:07.859Z,101178.25
2019-04-26T11:57:40.064Z,101174.02
2019-04-26T12:00:13.319Z,101178.56
2019-04-26T12:02:46.331Z,101176.11
2019-04-26T12:05:39.161Z,101177.70
2019-04-26T12:08:15.315Z,101171.66
2019-04-26T12:10:47.279Z,101171.03
2019-04-26T12:13:21.311Z,101170.20
2019-04-26T12:15:53.355Z,101158.03
2019-04-26T12:18:25.042Z,101159.23
2019-04-26T12:20:57.072Z,101161.94
2019-04-26T12:23:30.161Z,101157.02
2019-04-26T12:26:01.823Z,101153.06
2019-04-26T12:28:36.335Z,101150.12
2019-04-26T12:31:06.989Z,101143.08
2019-04-26T12:33:39.112Z,101140.74
2019-04-26T12:36:13.248Z,101132.23
2019-04-26T12:38:45.834Z,101132.48
2019-04-26T12:41:24.932Z,101133.58
2019-04-26T12:43:54.607Z,101129.05
2019-04-26T12:46:44.029Z,101128.90
2019-04-26T12:49:16.094Z,101118.80
2019-04-26T12:51:48.811Z,101119.56
2019-04-26T12:54:21.060Z,101112.64
2019-04-26T12:56:52.702Z,101110.67
2019-04-26T12:59:26.679Z,101114.61
2019-04-26T13:02:05.325Z,101117.98
2019-04-26T13:04:36.107Z,101113.52
2019-04-26T13:07:08.697Z,101115.58
2019-04-26T13:09:43.195Z,101114.22
2019-04-26T13:12:16.658Z,101111.77
2019-04-26T13:15:08.384Z,101102.67
2019-04-26T13:17:41.881Z,101101.42
2019-04-26T13:20:13.846Z,101101.06
2019-04-26T13:22:46.471Z,101099.70
2019-04-26T13:25:26.220Z,101093.49
2019-04-26T13:27:51.881Z,101099.39
2019-04-26T13:30:32.764Z,101094.61
2019-04-26T13:32:56.830Z,101092.18
2019-04-26T13:35:28.583Z,101098.84
2019-04-26T13:38:00.039Z,101091.59
2019-04-26T13:40:31.894Z,101103.53
2019-04-26T13:43:03.444Z,101097.87
2019-04-26T13:45:37.591Z,101096.39
2019-04-26T13:48:19.202Z,101090.60
2019-04-26T13:51:07.948Z,101085.41
2019-04-26T13:53:40.114Z,101095.22
2019-04-26T13:56:11.532Z,101090.22
2019-04-26T13:58:43.174Z,101091.11
2019-04-26T14:01:18.668Z,101084.94
2019-04-26T14:03:49.145Z,101077.55
2019-04-26T14:06:20.803Z,101079.52
2019-04-26T14:08:57.419Z,101082.09
2019-04-26T14:11:29.386Z,101072.23
2019-04-26T14:14:01.818Z,101074.41
2019-04-26T14:16:33.361Z,101078.35
2019-04-26T14:19:06.243Z,101082.36
2019-04-26T14:21:37.808Z,101077.64
2019-04-26T14:24:27.375Z,101084.81
2019-04-26T14:27:00.877Z,101085.33
2019-04-26T14:29:33.882Z,101075.05
2019-04-26T14:32:05.611Z,101079.40
2019-04-26T14:34:40.349Z,101080.22
2019-04-26T14:37:11.261Z,101078.16
2019-04-26T14:39:50.719Z,101078.67
2019-04-26T14:42:16.952Z,101080.28
2019-04-26T14:44:49.694Z,101078.27
2019-04-26T14:47:21.485Z,101083.67
2019-04-26T14:49:53.546Z,101076.83
2019-04-26T14:52:27.653Z,101074.64
2019-04-26T14:54:59.932Z,101078.63
2019-04-26T14:57:33.922Z,101081.12
2019-04-26T15:00:07.950Z,101071.19
2019-04-26T15:02:58.239Z,101073.84
2019-04-26T15:05:38.152Z,101073.47
2019-04-26T15:08:11.711Z,101068.98
2019-04-26T15:10:48.897Z,101072.33
2019-04-26T15:13:20.675Z,101079.80
2019-04-26T15:15:52.569Z,101072.14
2019-04-26T15:18:24.350Z,101075.16
2019-04-26T15:20:57.068Z,101071.02
2019-04-26T15:23:29.804Z,101072.97
2019-04-26T15:26:03.064Z,101073.22
2019-04-26T15:28:34.557Z,101074.28
2019-04-26T15:31:06.512Z,101071.64
2019-04-26T15:33:38.270Z,101070.58
2019-04-26T15:36:12.880Z,101072.08
2019-04-26T15:38:45.078Z,101069.89
2019-04-26T15:41:18.259Z,101066.86
2019-04-26T15:43:53.354Z,101064.00
2019-04-26T15:46:42.643Z,101069.63
2019-04-26T15:49:19.742Z,101066.49
2019-04-26T15:51:51.293Z,101067.73
2019-04-26T15:54:23.661Z,101065.34
2019-04-26T15:56:55.353Z,101064.23
2019-04-26T15:59:27.178Z,101061.58
2019-04-26T16:02:02.293Z,101065.11
2019-04-26T16:04:33.872Z,101066.52
2019-04-26T16:07:05.732Z,101066.78
2019-04-26T16:09:37.285Z,101064.31
2019-04-26T16:12:10.678Z,101061.94
2019-04-26T16:14:42.535Z,101061.41
2019-04-26T16:17:14.087Z,101064.17
2019-04-26T16:19:45.639Z,101065.35
2019-04-26T16:22:17.395Z,101064.10
2019-04-26T16:24:51.179Z,101064.73
2019-04-26T16:27:24.608Z,101066.09
2019-04-26T16:29:59.465Z,101068.36
2019-04-26T16:32:54.061Z,101064.80
2019-04-26T16:35:28.052Z,101068.27
2019-04-26T16:37:59.910Z,101060.11
2019-04-26T16:40:29.805Z,101062.16
2019-04-26T16:43:01.559Z,101061.42
2019-04-26T16:45:37.225Z,101064.68
2019-04-26T16:48:06.814Z,101063.36
2019-04-26T16:50:44.292Z,101062.36
2019-04-26T16:53:36.333Z,101064.53
2019-04-26T16:55:52.589Z,101060.78
2019-04-26T16:58:24.648Z,101069.20
2019-04-26T17:00:58.102Z,101070.09
2019-04-26T17:03:29.141Z,101066.89
2019-04-26T17:06:06.779Z,101068.23
2019-04-26T17:08:34.082Z,101069.71
2019-04-26T17:11:05.737Z,101070.92
2019-04-26T17:13:48.346Z,101081.91
2019-04-26T17:16:10.394Z,101076.20
2019-04-26T17:18:42.713Z,101086.78
2019-04-26T17:21:17.689Z,101088.86
2019-04-26T17:23:55.148Z,101091.60
2019-04-26T17:26:36.396Z,101093.72
2019-04-26T17:29:07.624Z,101096.59
2019-04-26T17:31:39.251Z,101101.34
2019-04-26T17:34:12.566Z,101104.52
2019-04-26T17:36:46.430Z,101103.14
2019-04-26T17:39:18.488Z,101102.92
2019-04-26T17:41:53.875Z,101110.20
2019-04-26T17:44:26.569Z,101108.86
2019-04-26T17:46:59.683Z,101118.22
2019-04-26T17:49:34.602Z,101121.38
2019-04-26T17:52:05.404Z,101125.67
2019-04-26T17:54:46.040Z,101119.58
2019-04-26T17:57:14.322Z,101120.20
2019-04-26T17:59:47.696Z,101125.03
2019-04-26T18:02:31.236Z,101121.89
2019-04-26T18:04:58.878Z,101117.38
2019-04-26T18:07:39.736Z,101125.02
2019-04-26T18:09:56.910Z,101124.73
2019-04-26T18:12:32.697Z,101123.55
2019-04-26T18:15:06.259Z,101126.72
2019-04-26T18:17:40.243Z,101119.22
2019-04-26T18:23:15.441Z,101125.67
2019-04-26T18:25:46.478Z,101112.89
2019-04-26T18:28:18.163Z,101118.52
2019-04-26T18:30:50.033Z,101118.84
2019-04-26T18:33:25.865Z,101118.61
2019-04-26T18:35:57.476Z,101114.25
2019-04-26T18:38:28.693Z,101115.69
2019-04-26T18:41:01.477Z,101116.01
2019-04-26T18:43:33.248Z,101124.39
2019-04-26T18:46:06.763Z,101125.71
2019-04-26T18:48:40.978Z,101127.98
2019-04-26T18:51:12.287Z,101130.43
2019-04-26T18:53:58.033Z,101131.22
2019-04-26T18:56:33.705Z,101128.98
2019-04-26T18:59:07.385Z,101130.56
2019-04-26T19:01:40.662Z,101121.86
2019-04-26T19:04:13.578Z,101127.75
2019-04-26T19:06:43.775Z,101126.53
2019-04-26T19:09:17.550Z,101122.03
2019-04-26T19:11:49.948Z,101118.28
2019-04-26T19:14:24.477Z,101121.23
2019-04-26T19:17:16.113Z,101125.18
2019-04-26T19:19:51.556Z,101119.98
2019-04-26T19:22:23.406Z,101127.42
2019-04-26T19:24:57.505Z,101125.46
2019-04-26T19:27:29.109Z,101117.42
2019-04-26T19:30:02.832Z,101122.28
2019-04-26T19:32:39.659Z,101119.98
2019-04-26T19:35:13.888Z,101116.39
2019-04-26T19:37:43.401Z,101114.42
2019-04-26T19:40:15.325Z,101114.90
2019-04-26T19:42:51.317Z,101113.62
2019-04-26T19:45:26.411Z,101109.10
2019-04-26T19:48:03.293Z,101113.91
2019-04-26T19:50:50.250Z,101108.81
2019-04-26T19:53:24.933Z,101109.64
2019-04-26T19:56:17.497Z,101107.51
2019-04-26T19:58:57.383Z,101106.55
2019-04-26T20:01:25.141Z,101109.00
2019-04-26T20:03:56.535Z,101100.11
2019-04-26T20:06:28.290Z,101104.80
2019-04-26T20:09:01.847Z,101105.68
2019-04-26T20:11:35.390Z,101108.39
2019-04-26T20:14:07.339Z,101101.48
2019-04-26T20:16:40.790Z,101107.15
2019-04-26T20:19:17.757Z,101111.16
2019-04-26T20:21:49.782Z,101110.15
2019-04-26T20:24:22.234Z,101108.08
2019-04-26T20:26:52.836Z,101109.09
2019-04-26T20:29:23.932Z,101112.89
2019-04-26T20:31:56.983Z,101109.28
2019-04-26T20:34:28.481Z,101110.49
2019-04-26T20:37:01.478Z,101111.97
2019-04-26T20:39:33.819Z,101112.27
2019-04-26T20:42:05.489Z,101112.34
2019-04-26T20:44:50.314Z,101109.47
2019-04-26T20:47:14.327Z,101113.30
2019-04-26T20:49:49.963Z,101110.89
2019-04-26T20:52:21.465Z,101104.90
2019-04-26T20:54:53.707Z,101110.78
2019-04-26T20:57:26.692Z,101107.48
2019-04-26T21:00:01.420Z,101107.09
2019-04-26T21:02:30.197Z,101114.63
2019-04-26T21:05:02.117Z,101106.83
2019-04-26T21:07:36.407Z,101110.35
2019-04-26T21:10:08.463Z,101110.61
2019-04-26T21:12:41.661Z,101110.41
2019-04-26T21:15:15.796Z,101115.68
2019-04-26T21:17:46.405Z,101109.53
2019-04-26T21:20:17.172Z,101111.13
2019-04-26T21:22:48.366Z,101106.42
2019-04-26T21:25:21.570Z,101101.41
2019-04-26T21:27:54.454Z,101108.36
2019-04-26T21:30:33.578Z,101102.67
2019-04-26T21:33:08.452Z,101109.07
2019-04-26T21:35:42.899Z,101106.67
2019-04-26T21:38:33.681Z,101107.23
2019-04-26T21:41:14.176Z,101109.06
2019-04-26T21:43:47.458Z,101104.92
2019-04-26T21:46:20.246Z,101107.71
2019-04-26T21:48:53.429Z,101098.03
2019-04-26T21:51:25.866Z,101099.70
2019-04-26T21:53:56.948Z,101098.89
2019-04-26T21:56:28.157Z,101097.14
2019-04-26T21:58:58.850Z,101099.95
2019-04-26T22:01:32.970Z,101100.86
2019-04-26T22:04:06.211Z,101096.57
2019-04-26T22:06:37.807Z,101103.22
2019-04-26T22:09:14.550Z,101096.47
2019-04-26T22:11:49.477Z,101102.95
2019-04-26T22:14:21.577Z,101101.58
2019-04-26T22:17:14.436Z,101096.14
2019-04-26T22:19:49.891Z,101098.86
2019-04-26T22:22:41.468Z,101092.56
2019-04-26T22:25:12.953Z,101089.86
2019-04-26T22:27:44.435Z,101093.09
2019-04-26T22:30:17.924Z,101089.80
2019-04-26T22:32:54.610Z,101084.79
2019-04-26T22:35:22.670Z,101080.73
2019-04-26T22:37:54.189Z,101087.20
2019-04-26T22:40:24.924Z,101084.70
2019-04-26T22:43:05.293Z,101078.66
2019-04-26T22:45:44.130Z,101079.57
2019-04-26T22:48:23.042Z,101082.94
2019-04-26T22:50:52.165Z,101085.55
2019-04-26T22:53:25.803Z,101080.92
2019-04-26T22:55:57.810Z,101079.92
2019-04-26T22:58:29.827Z,101075.39
2019-04-26T23:01:03.327Z,101073.83
2019-04-26T23:03:36.584Z,101073.22
2019-04-26T23:06:11.695Z,101072.51
2019-04-26T23:08:44.430Z,101071.17
2019-04-26T23:11:16.289Z,101065.02
2019-04-26T23:14:03.378Z,101071.31
2019-04-26T23:17:01.651Z,101068.74
2019-04-26T23:19:24.912Z,101066.08
2019-04-26T23:22:00.801Z,101065.45
2019-04-26T23:24:32.452Z,101065.61
2019-04-26T23:27:04.418Z,101061.69
2019-04-26T23:29:36.274Z,101062.94
2019-04-26T23:32:12.113Z,101063.94
2019-04-26T23:34:41.918Z,101064.80
2019-04-26T23:37:13.225Z,101058.13
2019-04-26T23:39:49.789Z,101058.02
2019-04-26T23:42:17.937Z,101061.20
2019-04-26T23:44:49.900Z,101054.30
2019-04-26T23:47:25.080Z,101051.63
2019-04-26T23:49:57.000Z,101049.90
2019-04-26T23:52:28.025Z,101043.28
2019-04-26T23:54:59.542Z,101045.09
2019-04-26T23:57:31.290Z,101038.77
